Time;durP1;ratioP1;P1;durP2;ratioP2;P2;SDS_P1;SDS_P2;PMS_P1;PMS_P2;Temp;Humidity;BMP_temperature;BMP_pressure;BME280_temperature;BME280_humidity;BME280_pressure;Samples;Min_cycle;Max_cycle;Signal;HPM_P1;HPM_P2
2023/06/01 00:00:34;;;;;;;2.38;1.00;;;;;;;;;;10305181;28;20230;-76
2023/06/01 00:05:35;;;;;;;0.90;0.90;;;;;;;;;;10312313;28;20238;-77
2023/06/01 00:10:36;;;;;;;2.58;1.08;;;;;;;;;;10345672;28;20901;-78
2023/06/01 00:15:37;;;;;;;1.02;0.90;;;;;;;;;;10359399;28;20228;-75
2023/06/01 00:20:39;;;;;;;3.00;0.93;;;;;;;;;;10320315;28;20716;-76
2023/06/01 00:25:40;;;;;;;2.60;1.02;;;;;;;;;;10340876;28;20310;-76
2023/06/01 00:30:41;;;;;;;3.75;1.30;;;;;;;;;;10336793;28;20385;-77
2023/06/01 00:35:44;;;;;;;2.38;1.30;;;;;;;;;;10339892;28;20228;-77
2023/06/01 00:40:49;;;;;;;3.42;1.27;;;;;;;;;;10344037;28;20228;-77
2023/06/01 00:45:50;;;;;;;2.15;1.25;;;;;;;;;;10359148;28;20239;-77
2023/06/01 00:50:52;;;;;;;2.05;0.93;;;;;;;;;;10342004;28;20227;-76
2023/06/01 00:55:53;;;;;;;1.17;1.10;;;;;;;;;;10328498;28;20330;-76
2023/06/01 01:00:54;;;;;;;3.45;1.30;;;;;;;;;;10334616;28;20255;-76
2023/06/01 01:06:02;;;;;;;2.83;1.35;;;;;;;;;;10318497;28;20219;-76
2023/06/01 01:11:18;;;;;;;4.32;0.98;;;;;;;;;;10340425;28;20281;-77
2023/06/01 01:16:20;;;;;;;3.63;1.23;;;;;;;;;;10323153;28;20236;-77
2023/06/01 01:21:29;;;;;;;2.80;1.13;;;;;;;;;;10346148;28;20343;-76
2023/06/01 01:26:43;;;;;;;2.38;1.27;;;;;;;;;;10310006;28;20299;-76
2023/06/01 01:31:45;;;;;;;2.05;1.23;;;;;;;;;;10335702;28;20322;-77
2023/06/01 01:36:46;;;;;;;1.55;1.05;;;;;;;;;;10303048;28;20271;-77
2023/06/01 01:41:48;;;;;;;1.85;1.75;;;;;;;;;;10340451;28;20234;-76
2023/06/01 01:46:49;;;;;;;3.20;1.00;;;;;;;;;;10338274;28;20219;-76
2023/06/01 01:52:10;;;;;;;1.58;1.17;;;;;;;;;;10325675;28;20278;-77
2023/06/01 01:57:16;;;;;;;4.15;1.10;;;;;;;;;;10310829;28;22549;-76
2023/06/01 02:02:18;;;;;;;2.88;1.48;;;;;;;;;;10323477;28;20220;-76
2023/06/01 02:07:19;;;;;;;1.88;1.35;;;;;;;;;;10330071;28;20310;-76
2023/06/01 02:12:21;;;;;;;26.05;11.00;;;;;;;;;;10294018;28;20220;-76
2023/06/01 02:17:25;;;;;;;3.72;3.30;;;;;;;;;;10337153;28;20298;-75
2023/06/01 02:22:26;;;;;;;3.85;1.40;;;;;;;;;;10328800;28;20234;-78
2023/06/01 02:27:27;;;;;;;1.15;1.15;;;;;;;;;;10342204;28;20215;-77
2023/06/01 02:32:30;;;;;;;1.60;1.50;;;;;;;;;;10330444;28;20219;-76
2023/06/01 02:37:32;;;;;;;1.63;1.52;;;;;;;;;;10333137;28;20732;-76
2023/06/01 02:42:33;;;;;;;3.30;1.83;;;;;;;;;;10324809;28;20217;-77
2023/06/01 02:47:34;;;;;;;3.22;1.60;;;;;;;;;;10332352;28;20212;-77
2023/06/01 02:52:35;;;;;;;4.75;1.60;;;;;;;;;;10345054;28;20795;-76
2023/06/01 02:57:36;;;;;;;3.72;1.92;;;;;;;;;;10345714;28;20297;-76
2023/06/01 03:02:39;;;;;;;3.08;2.17;;;;;;;;;;10313806;28;20211;-76
2023/06/01 03:07:49;;;;;;;7.82;2.05;;;;;;;;;;10345382;28;20208;-76
2023/06/01 03:12:58;;;;;;;4.13;2.00;;;;;;;;;;10325037;28;20281;-77
2023/06/01 03:18:01;;;;;;;4.03;1.73;;;;;;;;;;10354641;28;20729;-76
2023/06/01 03:23:02;;;;;;;2.88;2.28;;;;;;;;;;10330786;28;20596;-78
2023/06/01 03:28:03;;;;;;;2.70;2.40;;;;;;;;;;10331257;28;20196;-77
2023/06/01 03:33:04;;;;;;;5.65;2.75;;;;;;;;;;10349004;28;20204;-77
2023/06/01 03:38:06;;;;;;;3.20;2.58;;;;;;;;;;10308974;28;20204;-77
2023/06/01 03:43:07;;;;;;;2.60;2.17;;;;;;;;;;10303659;28;20318;-78
2023/06/01 03:48:08;;;;;;;5.90;2.60;;;;;;;;;;10312112;28;20216;-76
2023/06/01 03:53:10;;;;;;;6.90;3.15;;;;;;;;;;10330857;28;20250;-75
2023/06/01 03:58:11;;;;;;;6.72;2.38;;;;;;;;;;10335129;28;20211;-76
2023/06/01 04:03:14;;;;;;;6.03;2.75;;;;;;;;;;10278713;28;20204;-78
2023/06/01 04:08:16;;;;;;;1.80;1.70;;;;;;;;;;10335792;28;20207;-77
2023/06/01 04:13:17;;;;;;;3.30;2.22;;;;;;;;;;10315970;28;20231;-77
2023/06/01 04:18:18;;;;;;;5.95;3.15;;;;;;;;;;10314850;28;20218;-77
2023/06/01 04:23:37;;;;;;;3.47;2.97;;;;;;;;;;10333457;28;20282;-78
2023/06/01 04:28:43;;;;;;;7.22;3.35;;;;;;;;;;10328523;28;20259;-76
2023/06/01 04:33:52;;;;;;;3.97;2.80;;;;;;;;;;10314603;28;20236;-76
2023/06/01 04:38:54;;;;;;;5.18;2.90;;;;;;;;;;10304788;28;20204;-77
2023/06/01 04:43:55;;;;;;;5.93;3.33;;;;;;;;;;10328463;28;20298;-76
2023/06/01 04:48:59;;;;;;;5.53;3.15;;;;;;;;;;10313237;23;20231;-77
2023/06/01 04:54:01;;;;;;;5.05;3.63;;;;;;;;;;10308797;28;20258;-76
2023/06/01 04:59:05;;;;;;;5.97;3.45;;;;;;;;;;10412974;28;20222;-76
2023/06/01 05:04:06;;;;;;;4.85;2.95;;;;;;;;;;10423973;28;20522;-76
2023/06/01 05:09:07;;;;;;;4.28;3.22;;;;;;;;;;10432381;28;20226;-77
2023/06/01 05:14:08;;;;;;;3.53;3.17;;;;;;;;;;10433650;28;20282;-79
2023/06/01 05:19:10;;;;;;;4.97;3.78;;;;;;;;;;10418726;28;20274;-76
2023/06/01 05:24:12;;;;;;;5.40;2.80;;;;;;;;;;10439966;28;20744;-75
2023/06/01 05:29:14;;;;;;;2.72;2.50;;;;;;;;;;10457281;28;20217;-76
2023/06/01 05:34:16;;;;;;;6.20;2.92;;;;;;;;;;10452362;28;20222;-77
2023/06/01 05:39:17;;;;;;;4.22;2.90;;;;;;;;;;10442256;28;20218;-77
2023/06/01 05:44:18;;;;;;;5.80;3.22;;;;;;;;;;10416513;28;20609;-77
2023/06/01 05:49:20;;;;;;;5.15;2.97;;;;;;;;;;10452930;28;20261;-78
2023/06/01 05:54:21;;;;;;;3.95;3.53;;;;;;;;;;10439997;28;20229;-78
2023/06/01 05:59:22;;;;;;;3.15;2.95;;;;;;;;;;10448100;28;20225;-76
2023/06/01 06:04:24;;;;;;;4.32;3.78;;;;;;;;;;10423480;28;21919;-77
2023/06/01 06:09:25;;;;;;;5.60;3.25;;;;;;;;;;10450384;28;20213;-76
2023/06/01 06:14:26;;;;;;;3.45;2.90;;;;;;;;;;10430416;28;20267;-77
2023/06/01 06:19:27;;;;;;;4.22;3.15;;;;;;;;;;10452479;28;20217;-77
2023/06/01 06:24:29;;;;;;;3.38;2.70;;;;;;;;;;10450745;28;20234;-78
2023/06/01 06:29:30;;;;;;;2.78;2.50;;;;;;;;;;10438410;28;20227;-78
2023/06/01 06:34:35;;;;;;;6.78;3.63;;;;;;;;;;10438145;28;20312;-78
2023/06/01 06:39:37;;;;;;;8.02;3.10;;;;;;;;;;10422047;28;20207;-76
2023/06/01 06:44:38;;;;;;;5.20;2.88;;;;;;;;;;10427317;28;20310;-78
2023/06/01 06:49:40;;;;;;;5.10;2.33;;;;;;;;;;10430190;28;20259;-75
2023/06/01 06:54:41;;;;;;;4.32;3.17;;;;;;;;;;10444214;28;20312;-75
2023/06/01 06:59:42;;;;;;;8.77;3.15;;;;;;;;;;10452142;28;20206;-77
2023/06/01 07:04:43;;;;;;;4.40;2.78;;;;;;;;;;10440399;28;20223;-76
2023/06/01 07:09:44;;;;;;;4.78;3.38;;;;;;;;;;10456844;28;20222;-76
2023/06/01 07:14:45;;;;;;;4.15;2.78;;;;;;;;;;10451393;28;20808;-77
2023/06/01 07:19:46;;;;;;;4.97;3.00;;;;;;;;;;10440799;28;20218;-77
2023/06/01 07:24:47;;;;;;;5.28;2.63;;;;;;;;;;10424173;28;20206;-78
2023/06/01 07:29:54;;;;;;;4.78;2.83;;;;;;;;;;10456400;28;20232;-77
2023/06/01 07:34:57;;;;;;;4.18;2.53;;;;;;;;;;10430207;28;20234;-77
2023/06/01 07:39:59;;;;;;;4.00;2.63;;;;;;;;;;10446015;28;21522;-77
2023/06/01 07:45:00;;;;;;;4.85;2.97;;;;;;;;;;10445202;28;20218;-77
2023/06/01 07:50:01;;;;;;;3.63;2.50;;;;;;;;;;10425442;28;20287;-77
2023/06/01 07:55:03;;;;;;;2.50;2.40;;;;;;;;;;10441612;28;20230;-77
2023/06/01 08:00:12;;;;;;;6.20;2.80;;;;;;;;;;10417131;28;20297;-76
2023/06/01 08:05:18;;;;;;;5.68;2.75;;;;;;;;;;10445179;28;20601;-76
2023/06/01 08:10:19;;;;;;;2.35;2.15;;;;;;;;;;10453604;28;21278;-77
2023/06/01 08:15:20;;;;;;;2.58;2.47;;;;;;;;;;10448144;28;20300;-77
2023/06/01 08:20:22;;;;;;;6.95;2.30;;;;;;;;;;10456628;28;20199;-77
2023/06/01 08:25:23;;;;;;;3.25;2.00;;;;;;;;;;10449982;28;20186;-76
2023/06/01 08:30:25;;;;;;;2.50;2.25;;;;;;;;;;10448541;28;20275;-77
2023/06/01 08:35:26;;;;;;;5.82;2.75;;;;;;;;;;10440314;28;20321;-78
2023/06/01 08:40:28;;;;;;;4.65;2.47;;;;;;;;;;10453892;28;20848;-77
2023/06/01 08:45:29;;;;;;;7.75;2.22;;;;;;;;;;10449994;28;20695;-77
2023/06/01 08:50:30;;;;;;;1.73;1.63;;;;;;;;;;10442468;28;20253;-79
2023/06/01 08:55:32;;;;;;;2.67;1.95;;;;;;;;;;10451905;28;20218;-77
2023/06/01 09:00:33;;;;;;;2.42;2.33;;;;;;;;;;10458716;28;20210;-76
2023/06/01 09:05:34;;;;;;;2.40;2.20;;;;;;;;;;10459114;28;20725;-77
2023/06/01 09:10:36;;;;;;;2.10;1.90;;;;;;;;;;10447455;28;20271;-79
2023/06/01 09:15:50;;;;;;;2.92;1.98;;;;;;;;;;10450945;28;20277;-77
2023/06/01 09:20:53;;;;;;;8.43;2.13;;;;;;;;;;10463530;28;20225;-77
2023/06/01 09:26:10;;;;;;;4.75;2.38;;;;;;;;;;10461381;28;20214;-81
2023/06/01 09:31:12;;;;;;;2.38;2.20;;;;;;;;;;10475606;28;20221;-81
2023/06/01 09:36:24;;;;;;;1.38;1.35;;;;;;;;;;10449282;28;20923;-83
2023/06/01 09:41:25;;;;;;;1.67;1.58;;;;;;;;;;10456130;28;20225;-79
2023/06/01 09:46:26;;;;;;;1.88;1.52;;;;;;;;;;10459523;28;20711;-79
2023/06/01 09:51:30;;;;;;;1.88;1.77;;;;;;;;;;10467113;28;20669;-79
2023/06/01 09:56:44;;;;;;;3.55;1.70;;;;;;;;;;10452472;28;20218;-80
2023/06/01 10:01:47;;;;;;;2.45;1.63;;;;;;;;;;10463671;28;20308;-79
2023/06/01 10:06:51;;;;;;;2.17;1.73;;;;;;;;;;10440625;28;20310;-82
2023/06/01 10:11:53;;;;;;;7.00;1.90;;;;;;;;;;10458853;28;20222;-76
2023/06/01 10:16:54;;;;;;;3.55;1.73;;;;;;;;;;10450898;28;20236;-77
2023/06/01 10:21:57;;;;;;;5.20;1.70;;;;;;;;;;10457307;28;22025;-80
2023/06/01 10:27:05;;;;;;;1.60;1.50;;;;;;;;;;10459635;28;20210;-78
2023/06/01 10:32:26;;;;;;;2.78;1.65;;;;;;;;;;10458469;28;20216;-77
2023/06/01 10:37:27;;;;;;;6.50;1.73;;;;;;;;;;10442275;28;20238;-78
2023/06/01 10:42:34;;;;;;;3.92;1.50;;;;;;;;;;10475127;28;20213;-77
2023/06/01 10:47:35;;;;;;;2.67;1.45;;;;;;;;;;10449899;28;20245;-80
2023/06/01 10:52:38;;;;;;;2.30;1.95;;;;;;;;;;10447045;28;20218;-76
2023/06/01 10:57:39;;;;;;;1.98;1.80;;;;;;;;;;10456190;28;20229;-76
2023/06/01 11:02:48;;;;;;;1.63;1.45;;;;;;;;;;10439928;28;20220;-77
2023/06/01 11:07:49;;;;;;;3.40;1.58;;;;;;;;;;10457592;28;20221;-77
2023/06/01 11:13:10;;;;;;;2.85;1.20;;;;;;;;;;10430454;28;20271;-78
2023/06/01 11:18:30;;;;;;;1.92;1.65;;;;;;;;;;10470980;28;20248;-79
2023/06/01 11:23:32;;;;;;;3.53;1.35;;;;;;;;;;10441977;28;20248;-79
2023/06/01 11:28:33;;;;;;;3.65;1.52;;;;;;;;;;10473386;28;20870;-78
2023/06/01 11:33:36;;;;;;;6.65;1.80;;;;;;;;;;10449781;28;20213;-78
2023/06/01 11:38:40;;;;;;;1.52;1.42;;;;;;;;;;10456528;28;20309;-78
2023/06/01 11:43:42;;;;;;;5.85;1.75;;;;;;;;;;10457865;28;20295;-79
2023/06/01 11:48:43;;;;;;;3.45;1.70;;;;;;;;;;10441417;28;20280;-80
2023/06/01 11:53:44;;;;;;;2.72;1.40;;;;;;;;;;10448704;28;20253;-78
2023/06/01 11:58:45;;;;;;;1.73;1.63;;;;;;;;;;10440046;28;20759;-78
2023/06/01 12:03:47;;;;;;;2.33;2.13;;;;;;;;;;10439070;28;20313;-78
2023/06/01 12:08:52;;;;;;;2.08;1.98;;;;;;;;;;10445777;28;20222;-78
2023/06/01 12:13:56;;;;;;;2.67;1.80;;;;;;;;;;10460458;28;20219;-77
2023/06/01 12:18:57;;;;;;;3.05;1.80;;;;;;;;;;10473377;28;20206;-78
2023/06/01 12:23:59;;;;;;;3.35;1.40;;;;;;;;;;10459280;28;20259;-78
2023/06/01 12:29:00;;;;;;;3.33;1.98;;;;;;;;;;10469086;28;21081;-78
2023/06/01 12:34:01;;;;;;;3.05;1.83;;;;;;;;;;10448892;28;20210;-80
2023/06/01 12:39:04;;;;;;;4.07;1.95;;;;;;;;;;10442598;28;20639;-79
2023/06/01 12:44:05;;;;;;;2.80;1.85;;;;;;;;;;10479067;28;20218;-78
2023/06/01 12:49:14;;;;;;;2.13;1.92;;;;;;;;;;10438963;28;20786;-79
2023/06/01 12:54:14;;;;;;;3.80;1.73;;;;;;;;;;10459491;28;20226;-78
2023/06/01 12:59:16;;;;;;;3.88;2.15;;;;;;;;;;10441632;28;20962;-78
2023/06/01 13:04:17;;;;;;;1.98;1.88;;;;;;;;;;10439517;28;20207;-78
2023/06/01 13:09:19;;;;;;;5.05;1.80;;;;;;;;;;10434704;28;20222;-77
2023/06/01 13:14:20;;;;;;;2.17;1.98;;;;;;;;;;10449598;28;20868;-77
2023/06/01 13:19:21;;;;;;;1.65;1.50;;;;;;;;;;10468269;28;20214;-76
2023/06/01 13:24:22;;;;;;;1.75;1.58;;;;;;;;;;10448881;28;20218;-78
2023/06/01 13:29:23;;;;;;;1.42;1.38;;;;;;;;;;10442648;28;20733;-78
2023/06/01 13:34:25;;;;;;;4.05;1.42;;;;;;;;;;10427302;28;20934;-74
2023/06/01 13:39:26;;;;;;;1.55;1.45;;;;;;;;;;10445756;28;20283;-77
2023/06/01 13:44:28;;;;;;;1.00;0.90;;;;;;;;;;10426700;28;21073;-76
2023/06/01 13:49:29;;;;;;;3.80;1.40;;;;;;;;;;10424937;28;20744;-80
2023/06/01 13:54:30;;;;;;;4.22;1.45;;;;;;;;;;10441078;28;20750;-78
2023/06/01 13:59:34;;;;;;;1.58;1.48;;;;;;;;;;10430764;28;20789;-79
2023/06/01 14:04:35;;;;;;;2.45;1.67;;;;;;;;;;10435915;28;20695;-78
2023/06/01 14:09:36;;;;;;;1.98;1.10;;;;;;;;;;10450741;28;22652;-77
2023/06/01 14:14:37;;;;;;;1.38;1.27;;;;;;;;;;10457404;28;20299;-78
2023/06/01 14:19:38;;;;;;;1.17;1.17;;;;;;;;;;10447760;28;20375;-77
2023/06/01 14:24:39;;;;;;;1.35;1.35;;;;;;;;;;10447245;28;20221;-79
2023/06/01 14:29:40;;;;;;;1.88;1.63;;;;;;;;;;10434153;28;20221;-77
2023/06/01 14:34:41;;;;;;;1.48;1.30;;;;;;;;;;10435852;28;20270;-77
2023/06/01 14:39:42;;;;;;;1.13;1.13;;;;;;;;;;10446961;28;20212;-78
2023/06/01 14:44:44;;;;;;;1.65;0.93;;;;;;;;;;10425658;28;20263;-75
2023/06/01 14:49:45;;;;;;;1.10;1.05;;;;;;;;;;10420856;28;20240;-77
2023/06/01 14:54:46;;;;;;;2.33;1.13;;;;;;;;;;10448659;28;20384;-74
2023/06/01 14:59:47;;;;;;;2.42;0.95;;;;;;;;;;10437742;28;20942;-78
2023/06/01 15:04:48;;;;;;;1.23;1.13;;;;;;;;;;10450781;28;20213;-76
2023/06/01 15:09:49;;;;;;;1.08;0.90;;;;;;;;;;10446018;28;20218;-79
2023/06/01 15:14:51;;;;;;;1.55;1.38;;;;;;;;;;10451241;28;20284;-77
2023/06/01 15:19:52;;;;;;;1.77;1.65;;;;;;;;;;10454776;28;20216;-77
2023/06/01 15:24:53;;;;;;;2.05;1.20;;;;;;;;;;10461978;28;20230;-76
2023/06/01 15:29:54;;;;;;;1.00;1.00;;;;;;;;;;10456879;28;20304;-75
2023/06/01 15:34:55;;;;;;;1.02;1.02;;;;;;;;;;10450307;28;20309;-76
2023/06/01 15:39:56;;;;;;;1.17;1.17;;;;;;;;;;10473050;28;20782;-75
2023/06/01 15:44:57;;;;;;;1.95;1.20;;;;;;;;;;10433183;28;20210;-76
2023/06/01 15:49:58;;;;;;;1.48;1.40;;;;;;;;;;10436412;28;20225;-79
2023/06/01 15:54:59;;;;;;;1.35;1.10;;;;;;;;;;10450439;28;20307;-79
2023/06/01 16:00:02;;;;;;;1.38;1.15;;;;;;;;;;10427214;28;20301;-78
2023/06/01 16:05:13;;;;;;;1.88;1.45;;;;;;;;;;10441982;28;20236;-80
2023/06/01 16:10:14;;;;;;;2.45;1.33;;;;;;;;;;10445028;28;20202;-79
2023/06/01 16:15:15;;;;;;;1.50;1.23;;;;;;;;;;10466879;28;20218;-78
2023/06/01 16:20:16;;;;;;;2.50;1.30;;;;;;;;;;10450853;28;20202;-78
2023/06/01 16:25:24;;;;;;;2.85;1.10;;;;;;;;;;10461453;28;20193;-77
2023/06/01 16:30:25;;;;;;;1.88;1.67;;;;;;;;;;10453357;28;20302;-78
2023/06/01 16:35:27;;;;;;;2.05;1.23;;;;;;;;;;10428185;28;20231;-76
2023/06/01 16:40:28;;;;;;;2.83;1.00;;;;;;;;;;10451164;28;20233;-76
2023/06/01 16:45:29;;;;;;;1.67;0.93;;;;;;;;;;10466963;28;20241;-79
2023/06/01 16:50:30;;;;;;;3.05;1.10;;;;;;;;;;10434179;28;20230;-78
2023/06/01 16:55:31;;;;;;;1.50;1.40;;;;;;;;;;10451360;28;20279;-77
2023/06/01 17:00:33;;;;;;;6.75;1.10;;;;;;;;;;10458835;28;20225;-79
2023/06/01 17:05:34;;;;;;;2.25;1.40;;;;;;;;;;10449087;28;20221;-77
2023/06/01 17:10:35;;;;;;;2.28;1.20;;;;;;;;;;10456735;28;20214;-76
2023/06/01 17:15:36;;;;;;;4.80;1.40;;;;;;;;;;10460785;28;20223;-77
2023/06/01 17:20:37;;;;;;;2.92;1.38;;;;;;;;;;10448367;28;20213;-75
2023/06/01 17:25:40;;;;;;;5.57;1.27;;;;;;;;;;10450631;28;20214;-77
2023/06/01 17:30:41;;;;;;;6.82;1.50;;;;;;;;;;10439540;28;20606;-78
2023/06/01 17:35:42;;;;;;;4.03;1.15;;;;;;;;;;10451520;28;20233;-76
2023/06/01 17:40:43;;;;;;;3.55;1.23;;;;;;;;;;10436321;28;20723;-76
2023/06/01 17:45:44;;;;;;;2.50;1.40;;;;;;;;;;10432776;28;20222;-75
2023/06/01 17:50:45;;;;;;;2.47;1.25;;;;;;;;;;10484124;28;20241;-77
2023/06/01 17:55:46;;;;;;;3.40;1.13;;;;;;;;;;10428779;28;20244;-77
2023/06/01 18:00:47;;;;;;;2.95;1.30;;;;;;;;;;10465078;28;20230;-75
2023/06/01 18:05:48;;;;;;;2.47;1.40;;;;;;;;;;10454199;28;20218;-77
2023/06/01 18:10:49;;;;;;;1.48;1.38;;;;;;;;;;10453810;28;20222;-76
2023/06/01 18:15:50;;;;;;;2.50;1.50;;;;;;;;;;10465885;28;20229;-78
2023/06/01 18:20:51;;;;;;;1.48;1.33;;;;;;;;;;10436419;28;20272;-77
2023/06/01 18:25:52;;;;;;;5.18;1.50;;;;;;;;;;10454362;28;20300;-76
2023/06/01 18:30:53;;;;;;;3.22;1.40;;;;;;;;;;10437811;28;20316;-74
2023/06/01 18:35:54;;;;;;;2.05;1.60;;;;;;;;;;10438204;28;21070;-77
2023/06/01 18:40:56;;;;;;;3.08;1.10;;;;;;;;;;10456578;28;20633;-75
2023/06/01 18:45:57;;;;;;;3.20;1.65;;;;;;;;;;10428733;28;20333;-77
2023/06/01 18:50:58;;;;;;;1.65;1.30;;;;;;;;;;10434767;28;20236;-75
2023/06/01 18:55:59;;;;;;;4.38;1.30;;;;;;;;;;10446508;28;20781;-76
2023/06/01 19:01:00;;;;;;;3.20;1.50;;;;;;;;;;10449308;28;20275;-76
2023/06/01 19:06:01;;;;;;;2.40;1.17;;;;;;;;;;10466148;28;20567;-75
2023/06/01 19:11:04;;;;;;;2.15;1.20;;;;;;;;;;10461912;28;20214;-75
2023/06/01 19:16:06;;;;;;;2.88;1.60;;;;;;;;;;10462940;28;20226;-76
2023/06/01 19:21:07;;;;;;;4.25;1.90;;;;;;;;;;10461632;28;20206;-76
2023/06/01 19:26:08;;;;;;;4.95;1.42;;;;;;;;;;10462204;28;20210;-76
2023/06/01 19:31:11;;;;;;;1.95;1.38;;;;;;;;;;10472160;28;20577;-74
2023/06/01 19:36:32;;;;;;;2.80;1.42;;;;;;;;;;10455284;28;20232;-76
2023/06/01 19:41:33;;;;;;;1.98;1.60;;;;;;;;;;10478409;28;20221;-77
2023/06/01 19:46:35;;;;;;;1.90;1.52;;;;;;;;;;10440764;28;20209;-75
2023/06/01 19:51:36;;;;;;;3.13;1.60;;;;;;;;;;10461274;28;20218;-76
2023/06/01 19:56:40;;;;;;;2.30;1.92;;;;;;;;;;10448282;28;20222;-77
2023/06/01 20:01:41;;;;;;;1.95;1.55;;;;;;;;;;10461506;28;20595;-76
2023/06/01 20:06:45;;;;;;;1.75;1.67;;;;;;;;;;10455199;28;20202;-75
2023/06/01 20:11:46;;;;;;;3.10;1.73;;;;;;;;;;10468583;28;20221;-75
2023/06/01 20:16:47;;;;;;;5.53;1.60;;;;;;;;;;10450458;28;20308;-75
2023/06/01 20:21:51;;;;;;;3.50;1.35;;;;;;;;;;10478204;28;21290;-76
2023/06/01 20:26:56;;;;;;;1.13;1.13;;;;;;;;;;10445520;28;20270;-74
2023/06/01 20:31:58;;;;;;;4.60;1.52;;;;;;;;;;10453669;28;20572;-77
2023/06/01 20:37:00;;;;;;;2.35;1.17;;;;;;;;;;10466475;28;20798;-76
2023/06/01 20:42:03;;;;;;;1.20;1.10;;;;;;;;;;10479990;28;21434;-76
2023/06/01 20:47:04;;;;;;;2.28;1.20;;;;;;;;;;10452046;28;20234;-76
2023/06/01 20:52:05;;;;;;;3.30;1.20;;;;;;;;;;10448524;28;20214;-76
2023/06/01 20:57:06;;;;;;;2.33;1.40;;;;;;;;;;10469056;28;20218;-76
2023/06/01 21:02:08;;;;;;;1.00;1.00;;;;;;;;;;10479830;28;20253;-75
2023/06/01 21:07:09;;;;;;;3.78;1.10;;;;;;;;;;10473857;28;20294;-76
2023/06/01 21:12:10;;;;;;;1.85;0.88;;;;;;;;;;10464960;28;20734;-76
2023/06/01 21:17:13;;;;;;;3.55;0.80;;;;;;;;;;10476218;28;20218;-77
2023/06/01 21:22:14;;;;;;;6.07;0.82;;;;;;;;;;10483082;28;20302;-76
2023/06/01 21:27:15;;;;;;;1.38;1.15;;;;;;;;;;10467356;28;20692;-76
2023/06/01 21:32:16;;;;;;;3.95;0.70;;;;;;;;;;10468231;28;20218;-76
2023/06/01 21:37:17;;;;;;;3.92;0.88;;;;;;;;;;10446338;28;20303;-77
2023/06/01 21:42:18;;;;;;;3.33;0.82;;;;;;;;;;10460815;28;20220;-75
2023/06/01 21:47:19;;;;;;;5.15;1.33;;;;;;;;;;10468249;28;20249;-75
2023/06/01 21:52:20;;;;;;;3.67;1.15;;;;;;;;;;10452348;28;20301;-76
2023/06/01 21:57:21;;;;;;;3.65;0.80;;;;;;;;;;10467523;28;20702;-76
2023/06/01 22:02:22;;;;;;;2.92;0.80;;;;;;;;;;10449245;28;20218;-75
2023/06/01 22:07:26;;;;;;;0.80;0.80;;;;;;;;;;10468363;28;20289;-76
2023/06/01 22:12:27;;;;;;;3.22;0.93;;;;;;;;;;10467858;28;20259;-76
2023/06/01 22:17:28;;;;;;;2.10;1.25;;;;;;;;;;10467635;28;20253;-76
2023/06/01 22:22:29;;;;;;;1.40;0.50;;;;;;;;;;10458706;28;20217;-75
2023/06/01 22:27:31;;;;;;;1.80;0.80;;;;;;;;;;10444578;28;20216;-76
2023/06/01 22:32:32;;;;;;;1.58;0.77;;;;;;;;;;10468276;28;20241;-76
2023/06/01 22:37:33;;;;;;;1.38;0.60;;;;;;;;;;10478289;28;20220;-74
2023/06/01 22:42:34;;;;;;;11.93;1.00;;;;;;;;;;10458610;28;20214;-77
2023/06/01 22:47:35;;;;;;;1.27;0.63;;;;;;;;;;10466892;28;20637;-76
2023/06/01 22:52:38;;;;;;;2.92;0.63;;;;;;;;;;10475243;28;20260;-73
2023/06/01 22:57:39;;;;;;;1.60;1.05;;;;;;;;;;10466614;28;20229;-74
2023/06/01 23:02:40;;;;;;;1.45;0.77;;;;;;;;;;10455239;28;20586;-76
2023/06/01 23:07:41;;;;;;;1.58;0.88;;;;;;;;;;10443976;28;20229;-76
2023/06/01 23:12:46;;;;;;;2.70;0.65;;;;;;;;;;10452554;28;21135;-76
2023/06/01 23:17:51;;;;;;;3.65;0.93;;;;;;;;;;10462878;28;20221;-76
2023/06/01 23:22:53;;;;;;;11.82;0.60;;;;;;;;;;10464196;28;20280;-77
2023/06/01 23:27:54;;;;;;;5.25;0.98;;;;;;;;;;10464297;28;20279;-76
2023/06/01 23:32:55;;;;;;;4.03;1.45;;;;;;;;;;10454916;28;20711;-77
2023/06/01 23:37:56;;;;;;;4.55;1.45;;;;;;;;;;10464961;28;20226;-77
2023/06/01 23:42:57;;;;;;;1.30;0.90;;;;;;;;;;10443979;28;20215;-75
2023/06/01 23:47:58;;;;;;;3.60;1.15;;;;;;;;;;10462389;28;20279;-75
2023/06/01 23:52:59;;;;;;;5.22;1.48;;;;;;;;;;10462819;28;20210;-75
2023/06/01 23:58:01;;;;;;;9.13;1.60;;;;;;;;;;10443710;28;20309;-73
